Time;durP1;ratioP1;P1;durP2;ratioP2;P2;SDS_P1;SDS_P2;PMS_P1;PMS_P2;Temp;Humidity;BMP_temperature;BMP_pressure;BME280_temperature;BME280_humidity;BME280_pressure;Samples;Min_cycle;Max_cycle;Signal;HPM_P1;HPM_P2
2022/05/23 00:02:10;;;;;;;1.52;1.27;;;;;;;12.77;63.07;100475.72;4953371;28;20061;-85
2022/05/23 00:04:38;;;;;;;2.00;1.10;;;;;;;12.77;62.86;100469.63;4945097;28;20067;-85
2022/05/23 00:07:14;;;;;;;4.15;0.95;;;;;;;12.74;63.18;100468.78;4947470;28;20047;-89
2022/05/23 00:09:42;;;;;;;3.00;1.27;;;;;;;12.73;62.93;100471.44;4965881;28;20046;-86
2022/05/23 00:12:10;;;;;;;4.15;1.40;;;;;;;12.73;63.25;100474.06;4961380;28;20406;-84
2022/05/23 00:14:36;;;;;;;1.25;1.00;;;;;;;12.71;63.18;100468.84;4946941;28;20057;-87
2022/05/23 00:17:03;;;;;;;4.20;1.10;;;;;;;12.70;63.33;100468.88;4921558;28;20073;-86
2022/05/23 00:19:30;;;;;;;4.90;1.60;;;;;;;12.67;64.01;100461.03;4954494;28;20066;-85
2022/05/23 00:21:57;;;;;;;3.22;1.30;;;;;;;12.64;63.74;100455.88;4946788;28;20042;-85
2022/05/23 00:24:24;;;;;;;4.88;1.30;;;;;;;12.60;63.62;100455.06;4945180;28;20078;-86
2022/05/23 00:26:52;;;;;;;2.67;1.50;;;;;;;12.55;63.86;100460.44;4949247;28;20050;-89
2022/05/23 00:29:19;;;;;;;1.48;1.38;;;;;;;12.54;63.72;100461.31;4934231;28;20050;-83
2022/05/23 00:37:23;;;;;;;1.52;1.25;;;;;;;12.40;64.76;100452.84;4902655;29;20055;-86
2022/05/23 00:39:50;;;;;;;1.50;1.40;;;;;;;12.37;64.99;100453.78;4955902;28;20917;-85
2022/05/23 00:45:06;;;;;;;4.60;1.85;;;;;;;12.27;66.01;100451.34;4963630;28;20034;-89
2022/05/23 00:47:34;;;;;;;2.97;1.95;;;;;;;12.23;66.24;100450.56;4948032;28;20057;-86
2022/05/23 00:50:01;;;;;;;2.47;1.77;;;;;;;12.20;66.56;100451.47;4945443;28;20050;-85
2022/05/23 00:52:45;;;;;;;2.50;1.42;;;;;;;12.15;67.03;100453.31;4931225;28;20047;-89
2022/05/23 00:55:25;;;;;;;2.88;1.70;;;;;;;12.14;67.40;100453.34;4963230;28;20434;-86
2022/05/23 00:57:58;;;;;;;1.83;1.65;;;;;;;12.11;67.65;100443.78;4961342;28;20051;-84
2022/05/23 01:00:27;;;;;;;4.73;2.07;;;;;;;12.12;68.13;100444.63;4965262;28;20084;-86
2022/05/23 01:03:01;;;;;;;4.05;2.47;;;;;;;12.06;68.70;100433.34;4944857;28;20317;-84
2022/05/23 01:05:29;;;;;;;4.20;1.67;;;;;;;12.02;69.46;100438.69;4931678;28;20439;-86
2022/05/23 01:07:55;;;;;;;2.47;2.15;;;;;;;12.00;69.72;100432.63;4929314;28;20533;-84
2022/05/23 01:10:22;;;;;;;6.20;2.15;;;;;;;11.97;69.91;100441.41;4955270;28;20070;-88
2022/05/23 01:12:49;;;;;;;6.45;2.60;;;;;;;11.95;70.03;100442.28;4943971;28;21319;-88
2022/05/23 01:15:30;;;;;;;2.50;2.13;;;;;;;11.92;70.63;100428.31;4947293;28;20051;-86
2022/05/23 01:18:01;;;;;;;4.05;2.13;;;;;;;11.90;70.69;100430.13;4936434;28;20134;-85
2022/05/23 01:20:29;;;;;;;13.98;2.90;;;;;;;11.90;70.37;100422.25;4949130;28;20050;-85
2022/05/23 01:23:08;;;;;;;2.10;2.00;;;;;;;11.91;70.84;100407.38;4937661;28;20054;-88
2022/05/23 01:25:46;;;;;;;5.97;4.68;;;;;;;11.95;70.54;100410.81;4945624;28;20127;-87
2022/05/23 01:28:15;;;;;;;3.92;2.60;;;;;;;11.98;71.05;100405.53;4945411;28;20035;-88
2022/05/23 01:30:43;;;;;;;2.65;2.10;;;;;;;12.04;71.01;100408.91;4944156;28;20556;-89
2022/05/23 01:33:13;;;;;;;3.97;2.80;;;;;;;12.12;70.76;100397.41;4944680;28;20061;-88
2022/05/23 01:35:40;;;;;;;6.22;2.03;;;;;;;12.17;70.67;100401.66;4945643;28;20055;-91
2022/05/23 01:38:09;;;;;;;3.45;2.10;;;;;;;12.22;70.75;100396.34;4960903;28;20318;-86
2022/05/23 01:40:36;;;;;;;4.53;2.03;;;;;;;12.26;70.79;100394.53;4949499;28;20047;-85
2022/05/23 01:43:02;;;;;;;2.47;1.92;;;;;;;12.29;71.24;100397.06;4947587;28;20101;-85
2022/05/23 01:45:33;;;;;;;7.10;2.45;;;;;;;12.26;71.26;100384.88;4967909;28;20047;-89
2022/05/23 01:48:01;;;;;;;7.63;2.70;;;;;;;12.28;71.23;100380.47;4941859;28;20145;-88
2022/05/23 01:50:28;;;;;;;2.55;2.17;;;;;;;12.27;71.18;100378.72;4932664;28;20047;-85
2022/05/23 01:52:58;;;;;;;2.83;2.63;;;;;;;12.24;71.10;100386.66;4957671;28;20063;-84
2022/05/23 01:55:25;;;;;;;3.17;1.98;;;;;;;12.21;71.40;100376.22;4934793;28;20057;-84
2022/05/23 01:57:51;;;;;;;3.30;2.00;;;;;;;12.17;71.30;100370.16;4956057;28;20061;-88
2022/05/23 02:03:07;;;;;;;7.25;2.50;;;;;;;12.08;71.99;100368.63;4951181;28;20046;-85
2022/05/23 02:05:34;;;;;;;2.50;1.80;;;;;;;12.06;72.01;100370.41;4949623;28;20062;-84
2022/05/23 02:08:01;;;;;;;3.90;2.38;;;;;;;12.04;72.08;100356.44;4964868;28;20043;-89
2022/05/23 02:10:29;;;;;;;4.75;2.47;;;;;;;12.02;72.89;100355.59;4946850;28;20070;-85
2022/05/23 02:12:59;;;;;;;3.45;2.97;;;;;;;11.97;72.81;100348.69;4964715;28;20058;-85
2022/05/23 02:15:28;;;;;;;3.78;2.03;;;;;;;11.94;72.81;100359.25;4957956;28;20160;-85
2022/05/23 02:18:07;;;;;;;2.75;2.55;;;;;;;11.90;72.61;100346.19;4952344;28;20050;-90
2022/05/23 02:20:33;;;;;;;4.05;2.28;;;;;;;11.86;72.73;100333.16;4980917;28;20047;-83
2022/05/23 02:23:00;;;;;;;6.22;2.95;;;;;;;11.84;73.49;100324.47;4949172;28;20051;-85
2022/05/23 02:25:27;;;;;;;7.95;2.30;;;;;;;11.82;73.33;100334.13;4954032;28;20047;-85
2022/05/23 02:27:56;;;;;;;6.38;2.55;;;;;;;11.80;73.21;100336.78;4940226;28;20074;-85
2022/05/23 02:30:23;;;;;;;6.57;2.65;;;;;;;11.81;73.47;100335.00;4954385;28;20178;-85
2022/05/23 02:32:50;;;;;;;9.07;3.25;;;;;;;11.77;73.95;100321.06;4968403;28;20054;-88
2022/05/23 02:35:20;;;;;;;7.18;2.78;;;;;;;11.75;74.18;100320.25;4955931;28;20231;-85
2022/05/23 02:37:47;;;;;;;2.83;2.50;;;;;;;11.74;73.86;100315.91;4952990;28;20039;-83
2022/05/23 02:40:14;;;;;;;10.80;4.75;;;;;;;11.72;73.96;100325.53;4971514;28;20043;-86
2022/05/23 02:42:41;;;;;;;3.15;2.90;;;;;;;11.69;74.24;100329.13;4960459;28;20046;-86
2022/05/23 02:45:09;;;;;;;3.05;2.78;;;;;;;11.69;74.36;100329.13;4958595;28;20097;-85
2022/05/23 02:47:37;;;;;;;3.40;2.40;;;;;;;11.71;73.87;100329.09;4927328;28;20065;-90
2022/05/23 02:50:06;;;;;;;3.60;2.60;;;;;;;11.72;73.78;100328.16;4961369;28;20049;-87
2022/05/23 02:52:32;;;;;;;3.13;2.58;;;;;;;11.72;73.69;100339.53;4926878;28;20073;-85
2022/05/23 02:54:59;;;;;;;2.95;2.58;;;;;;;11.75;73.75;100347.34;4947265;28;20630;-84
2022/05/23 02:57:25;;;;;;;6.43;3.15;;;;;;;11.77;73.86;100341.19;4946265;28;20134;-86
2022/05/23 02:59:54;;;;;;;6.05;3.08;;;;;;;11.74;73.89;100350.00;4951797;28;20043;-88
2022/05/23 03:05:05;;;;;;;;;;;;;;;11.68;74.43;100352.72;4944960;28;20088;-87
2022/05/23 03:07:31;;;;;;;13.98;3.78;;;;;;;11.65;74.54;100355.41;4931305;28;20612;-89
2022/05/23 03:09:58;;;;;;;7.20;2.90;;;;;;;11.62;74.58;100353.72;4944002;28;20054;-83
2022/05/23 03:12:26;;;;;;;3.33;3.08;;;;;;;11.58;74.83;100349.41;4946561;28;20159;-86
2022/05/23 03:14:55;;;;;;;4.57;3.15;;;;;;;11.58;75.04;100355.50;4941832;28;20055;-87
2022/05/23 03:17:22;;;;;;;3.83;2.75;;;;;;;11.59;74.79;100348.53;4947783;28;20050;-85
2022/05/23 03:19:49;;;;;;;7.03;2.90;;;;;;;11.60;75.44;100350.22;4931267;28;20239;-88
2022/05/23 03:27:44;;;;;;;4.53;2.97;;;;;;;11.64;75.29;100325.72;4948662;28;20346;-86
2022/05/23 03:30:12;;;;;;;6.25;3.33;;;;;;;11.67;75.83;100330.03;4948601;28;20060;-85
2022/05/23 03:32:39;;;;;;;7.88;3.15;;;;;;;11.67;75.62;100328.28;4917557;28;20050;-88
2022/05/23 03:35:08;;;;;;;3.33;2.78;;;;;;;11.73;75.99;100322.91;4924090;28;20252;-85
2022/05/23 03:37:35;;;;;;;5.07;2.60;;;;;;;11.77;75.32;100317.59;4962449;28;20061;-88
2022/05/23 03:40:07;;;;;;;4.20;2.47;;;;;;;11.79;75.04;100311.44;4946806;28;20081;-88
2022/05/23 03:42:37;;;;;;;6.43;3.50;;;;;;;11.84;74.77;100304.34;4940279;28;20168;-88
2022/05/23 03:45:07;;;;;;;4.57;3.00;;;;;;;11.89;74.41;100309.50;4949246;28;20038;-87
2022/05/23 03:47:33;;;;;;;6.97;3.80;;;;;;;11.92;74.13;100310.28;4950684;28;20053;-88
2022/05/23 03:50:02;;;;;;;6.60;3.72;;;;;;;11.96;74.23;100308.50;4936132;28;20122;-86
2022/05/23 03:52:28;;;;;;;6.60;2.88;;;;;;;11.99;73.54;100315.44;4945573;28;20086;-88
2022/05/23 03:54:55;;;;;;;5.18;3.22;;;;;;;12.02;73.73;100307.50;4938229;28;20054;-89
2022/05/23 03:57:23;;;;;;;6.22;3.25;;;;;;;12.05;73.58;100305.69;4954453;28;20035;-91
2022/05/23 03:59:52;;;;;;;6.50;2.90;;;;;;;12.08;73.20;100305.66;4958126;28;20553;-85
2022/05/23 04:02:20;;;;;;;4.60;3.47;;;;;;;12.11;73.07;100294.22;4931736;28;20522;-85
2022/05/23 04:04:47;;;;;;;4.88;3.10;;;;;;;12.17;73.22;100288.81;4938603;28;20557;-85
2022/05/23 04:07:14;;;;;;;5.15;3.53;;;;;;;12.21;72.84;100279.97;4946198;28;20053;-86
2022/05/23 04:09:54;;;;;;;5.80;2.92;;;;;;;12.27;72.64;100286.88;4949964;28;20043;-85
2022/05/23 04:12:21;;;;;;;5.72;3.20;;;;;;;12.33;72.04;100278.00;4964038;28;20065;-86
2022/05/23 04:14:51;;;;;;;9.65;3.30;;;;;;;12.36;72.04;100270.91;4963466;28;20160;-90
2022/05/23 04:17:19;;;;;;;5.07;3.05;;;;;;;12.40;71.69;100267.31;4952209;28;20043;-87
2022/05/23 04:19:46;;;;;;;5.97;3.15;;;;;;;12.47;71.46;100260.16;4924707;28;20050;-87
2022/05/23 04:22:12;;;;;;;4.18;3.13;;;;;;;12.52;71.30;100254.81;4945711;28;20046;-88
2022/05/23 04:24:39;;;;;;;6.30;3.38;;;;;;;12.59;70.73;100253.75;4959825;28;20039;-85
2022/05/23 04:27:07;;;;;;;5.72;3.20;;;;;;;12.62;70.34;100258.97;4935160;28;20050;-86
2022/05/23 04:29:37;;;;;;;3.95;2.75;;;;;;;12.65;70.22;100255.41;4974511;28;20051;-87
2022/05/23 04:35:12;;;;;;;5.32;3.00;;;;;;;12.70;70.33;100248.28;4962479;28;20050;-87
2022/05/23 04:37:35;;;;;;;5.13;2.92;;;;;;;12.87;69.69;100229.47;4955817;28;20117;-86
2022/05/23 04:40:03;;;;;;;3.30;3.00;;;;;;;12.94;69.40;100220.50;4966403;28;20045;-87
2022/05/23 04:42:31;;;;;;;3.17;2.50;;;;;;;13.04;69.29;100234.28;4949863;28;20046;-87
2022/05/23 04:45:02;;;;;;;3.60;3.03;;;;;;;13.13;68.72;100227.91;4951735;28;20520;-87
2022/05/23 04:50:15;;;;;;;4.13;2.63;;;;;;;13.32;68.35;100212.53;4953355;28;20398;-85
2022/05/23 04:52:42;;;;;;;2.65;2.42;;;;;;;13.40;67.97;100213.19;4965161;28;20050;-85
2022/05/23 04:55:11;;;;;;;4.95;2.42;;;;;;;13.46;67.33;100207.78;4954532;28;20171;-85
2022/05/23 04:57:39;;;;;;;5.78;3.10;;;;;;;13.50;67.81;100209.41;4938318;28;20054;-85
2022/05/23 05:00:22;;;;;;;4.72;3.35;;;;;;;13.55;67.39;100196.13;4945333;28;20046;-88
2022/05/23 05:02:51;;;;;;;6.60;2.83;;;;;;;13.61;67.23;100188.09;4952058;28;20653;-87
2022/05/23 05:08:08;;;;;;;3.65;2.55;;;;;;;13.60;67.26;100188.09;4951103;28;20053;-87
2022/05/23 05:14:14;;;;;;;4.47;2.97;;;;;;;13.75;67.10;100174.50;5116574;27;20829;-80
2022/05/23 05:16:41;;;;;;;4.07;3.08;;;;;;;13.85;66.62;100177.72;5092033;28;20086;-79
2022/05/23 05:19:07;;;;;;;5.18;2.47;;;;;;;13.92;66.50;100173.16;5088976;28;20044;-79
2022/05/23 05:21:34;;;;;;;4.03;2.58;;;;;;;13.98;66.09;100158.03;5078744;28;20058;-78
2022/05/23 05:24:00;;;;;;;4.30;2.63;;;;;;;14.00;65.73;100155.34;5096766;27;20040;-81
2022/05/23 05:26:29;;;;;;;3.92;2.83;;;;;;;13.99;66.03;100143.97;5076584;28;20052;-79
2022/05/23 05:28:55;;;;;;;3.50;2.50;;;;;;;14.03;65.96;100142.09;5063319;28;20865;-77
2022/05/23 05:31:48;;;;;;;5.60;3.17;;;;;;;14.06;66.21;100144.63;5063734;28;20048;-78
2022/05/23 05:34:24;;;;;;;4.07;2.60;;;;;;;14.11;65.70;100131.34;5059065;28;20049;-81
2022/05/23 05:36:59;;;;;;;4.43;3.08;;;;;;;14.15;65.77;100125.91;5058812;28;20652;-82
2022/05/23 05:39:31;;;;;;;6.30;2.90;;;;;;;14.20;65.51;100136.31;5058304;28;20040;-83
2022/05/23 05:42:26;;;;;;;3.05;2.80;;;;;;;14.20;65.45;100131.03;5079759;28;20183;-79
2022/05/23 05:45:16;;;;;;;4.07;2.33;;;;;;;14.17;65.50;100132.00;5078826;28;20032;-81
2022/05/23 05:47:46;;;;;;;2.08;1.92;;;;;;;14.20;65.74;100131.88;5077833;28;20047;-78
2022/05/23 05:50:26;;;;;;;3.10;2.47;;;;;;;14.20;65.59;100125.78;5062939;28;20445;-81
2022/05/23 05:52:56;;;;;;;4.50;2.40;;;;;;;14.17;65.78;100123.22;5061093;28;20159;-80
2022/05/23 05:55:23;;;;;;;2.90;2.33;;;;;;;14.14;65.95;100116.28;5065412;28;20101;-79
2022/05/23 05:57:50;;;;;;;4.82;2.83;;;;;;;14.17;66.16;100118.84;5056693;28;20052;-80
2022/05/23 06:00:17;;;;;;;5.13;2.42;;;;;;;14.19;65.86;100126.69;5043851;28;20052;-79
2022/05/23 06:02:45;;;;;;;6.30;3.47;;;;;;;14.19;65.92;100114.38;5059148;28;20061;-78
2022/05/23 06:05:11;;;;;;;4.00;2.28;;;;;;;14.22;65.64;100119.53;5081400;28;20494;-82
2022/05/23 06:13:06;;;;;;;4.32;2.60;;;;;;;14.43;65.72;100111.84;5080598;28;19967;-78
2022/05/23 06:15:33;;;;;;;6.35;4.05;;;;;;;14.45;65.84;100112.66;5062751;28;20036;-79
2022/05/23 06:18:00;;;;;;;6.28;2.65;;;;;;;14.47;65.97;100115.22;5075807;28;20059;-81
2022/05/23 06:20:27;;;;;;;9.90;2.97;;;;;;;14.47;66.12;100115.22;5075352;28;20394;-81
2022/05/23 06:22:53;;;;;;;7.07;3.03;;;;;;;14.51;66.00;100106.28;5059177;28;20799;-80
2022/05/23 06:25:21;;;;;;;4.78;3.67;;;;;;;14.53;66.26;100104.47;5049882;28;20060;-82
2022/05/23 06:27:47;;;;;;;3.75;2.92;;;;;;;14.54;66.24;100100.94;5064931;28;20048;-78
2022/05/23 06:30:18;;;;;;;5.47;3.13;;;;;;;14.60;66.22;100103.38;5064088;28;20048;-79
2022/05/23 06:32:45;;;;;;;5.85;3.25;;;;;;;14.58;66.35;100110.47;5041017;28;20052;-80
2022/05/23 06:35:13;;;;;;;5.47;2.90;;;;;;;14.58;66.68;100109.59;5047077;28;20052;-80
2022/05/23 06:37:42;;;;;;;6.10;2.63;;;;;;;14.59;66.82;100101.66;5048120;28;20280;-79
2022/05/23 06:40:15;;;;;;;4.97;3.22;;;;;;;14.70;66.26;100098.66;5064491;28;20048;-81
2022/05/23 06:42:42;;;;;;;4.82;2.53;;;;;;;14.75;65.93;100099.38;5042908;28;20131;-80
2022/05/23 06:45:10;;;;;;;4.25;3.03;;;;;;;14.80;65.67;100092.16;5048251;28;20078;-80
2022/05/23 06:47:36;;;;;;;8.52;3.63;;;;;;;14.87;64.72;100080.50;5049821;28;20517;-80
2022/05/23 06:50:03;;;;;;;3.88;3.28;;;;;;;14.92;64.66;100068.94;5046958;28;20049;-77
2022/05/23 06:52:33;;;;;;;9.75;2.95;;;;;;;14.93;64.10;100066.22;5058089;28;20051;-80
2022/05/23 06:55:00;;;;;;;11.75;3.35;;;;;;;14.89;64.25;100057.56;5063838;28;20057;-78
2022/05/23 06:57:27;;;;;;;5.45;3.10;;;;;;;14.96;64.14;100054.72;5057983;28;20067;-79
2022/05/23 06:59:53;;;;;;;7.75;3.20;;;;;;;14.94;64.30;100052.16;5064730;28;20055;-79
2022/05/23 07:02:20;;;;;;;4.50;2.72;;;;;;;14.96;64.12;100060.00;5061084;28;20128;-79
2022/05/23 07:13:13;;;;;;;6.32;3.25;;;;;;;15.22;63.00;100054.59;5043244;28;20495;-81
2022/05/23 07:15:46;;;;;;;3.90;2.78;;;;;;;15.29;63.05;100054.34;5061895;28;20055;-80
2022/05/23 07:18:14;;;;;;;;;;;;;;;15.35;62.96;100059.41;5046103;28;20551;-80
2022/05/23 07:20:42;;;;;;;5.50;2.83;;;;;;;15.41;62.55;100056.53;5061514;28;19931;-84
2022/05/23 07:23:10;;;;;;;4.70;3.10;;;;;;;15.55;62.29;100056.88;5042324;28;20037;-79
2022/05/23 07:25:37;;;;;;;7.60;3.58;;;;;;;15.78;61.60;100052.44;5043147;28;20485;-81
2022/05/23 07:28:05;;;;;;;6.07;2.67;;;;;;;16.01;61.35;100058.63;5044438;28;20399;-80
2022/05/23 07:30:32;;;;;;;2.55;2.25;;;;;;;16.17;60.62;100059.69;5044661;28;20167;-81
2022/05/23 07:32:59;;;;;;;9.23;3.65;;;;;;;16.30;60.40;100048.63;5057036;28;20584;-79
2022/05/23 07:35:26;;;;;;;6.13;3.30;;;;;;;16.43;60.00;100046.31;5043016;28;20135;-80
2022/05/23 07:37:53;;;;;;;5.47;3.20;;;;;;;16.36;59.67;100049.22;5044207;28;20139;-78
2022/05/23 07:40:21;;;;;;;6.53;3.10;;;;;;;16.33;59.97;100038.75;5061155;28;20060;-81
2022/05/23 07:42:48;;;;;;;6.78;3.38;;;;;;;16.36;59.92;100030.72;5045745;28;20043;-80
2022/05/23 07:45:15;;;;;;;4.43;3.08;;;;;;;16.39;59.84;100024.44;5059553;28;20125;-80
2022/05/23 07:47:42;;;;;;;7.20;3.38;;;;;;;16.38;59.78;100034.13;5041384;28;20127;-77
2022/05/23 07:50:12;;;;;;;7.40;4.10;;;;;;;16.32;59.29;100031.78;5045229;28;20052;-80
2022/05/23 07:52:39;;;;;;;7.65;3.05;;;;;;;16.26;59.70;100028.53;5062479;28;20044;-85
2022/05/23 08:00:37;;;;;;;2.83;2.35;;;;;;;16.41;59.62;100025.22;5052761;28;20024;-80
2022/05/23 08:03:17;;;;;;;5.45;3.58;;;;;;;16.45;59.01;100021.53;5064281;28;20044;-83
2022/05/23 08:06:02;;;;;;;5.85;3.75;;;;;;;16.37;59.06;100018.34;5063180;28;20055;-79
2022/05/23 08:08:29;;;;;;;5.35;2.90;;;;;;;16.35;58.96;100010.50;5065670;28;20044;-80
2022/05/23 08:10:56;;;;;;;5.43;2.75;;;;;;;16.34;59.46;100002.66;5060807;28;20036;-82
2022/05/23 08:13:23;;;;;;;4.47;2.80;;;;;;;16.41;59.35;99996.16;5047736;28;20410;-81
2022/05/23 08:15:53;;;;;;;4.70;2.70;;;;;;;16.54;59.12;99994.72;5045640;28;20578;-79
2022/05/23 08:18:19;;;;;;;4.07;2.92;;;;;;;16.72;58.54;99984.22;5065515;28;20626;-79
2022/05/23 08:20:46;;;;;;;3.97;2.80;;;;;;;16.77;58.63;99989.31;5046790;28;20068;-84
2022/05/23 08:23:13;;;;;;;6.60;3.30;;;;;;;16.89;58.55;99993.19;5057153;28;20410;-80
2022/05/23 08:25:39;;;;;;;6.03;3.40;;;;;;;17.00;58.78;99988.28;5049683;28;20107;-80
2022/05/23 08:28:09;;;;;;;6.85;3.47;;;;;;;17.16;58.65;99991.09;5045436;28;20075;-81
2022/05/23 08:30:36;;;;;;;7.80;3.50;;;;;;;17.34;58.37;99986.72;5045180;28;20124;-79
2022/05/23 08:33:03;;;;;;;6.75;3.10;;;;;;;17.55;57.85;99987.47;5061945;28;20044;-81
2022/05/23 08:35:30;;;;;;;6.68;3.58;;;;;;;17.81;57.21;99980.03;5061666;28;20044;-81
2022/05/23 08:37:58;;;;;;;4.63;3.85;;;;;;;17.80;56.97;99988.91;5043645;28;20076;-78
2022/05/23 08:41:06;;;;;;;12.82;4.20;;;;;;;17.84;56.70;99974.56;5043976;28;20574;-79
2022/05/23 08:44:05;;;;;;;14.52;3.78;;;;;;;17.79;56.78;99974.78;5049384;28;20044;-79
2022/05/23 08:47:08;;;;;;;7.25;4.00;;;;;;;17.75;57.33;99986.47;5060217;28;20121;-83
2022/05/23 08:50:13;;;;;;;6.18;3.50;;;;;;;17.85;57.01;99974.50;5062370;28;20057;-82
2022/05/23 08:52:54;;;;;;;7.57;3.95;;;;;;;18.08;56.54;99976.94;5059056;28;20616;-81
2022/05/23 08:55:33;;;;;;;3.97;3.58;;;;;;;18.30;56.14;99979.34;5059584;28;20158;-84
2022/05/23 08:58:08;;;;;;;4.47;3.05;;;;;;;18.45;55.71;99975.91;5077365;28;20040;-80
2022/05/23 09:00:42;;;;;;;6.18;3.95;;;;;;;18.61;55.11;99977.75;5048257;28;20128;-80
2022/05/23 09:03:29;;;;;;;6.13;3.22;;;;;;;18.71;54.19;99970.13;5044829;28;20828;-79
2022/05/23 09:06:21;;;;;;;3.83;3.53;;;;;;;18.73;54.64;99973.56;5063833;28;20048;-79
2022/05/23 09:08:54;;;;;;;5.03;3.40;;;;;;;18.67;53.99;99965.00;5057883;28;20064;-81
2022/05/23 09:11:47;;;;;;;6.45;3.30;;;;;;;18.71;54.03;99978.97;5059110;28;20060;-80
2022/05/23 09:14:17;;;;;;;4.43;3.40;;;;;;;18.56;54.43;99964.72;5060088;28;20407;-81
2022/05/23 09:16:53;;;;;;;5.30;3.92;;;;;;;18.73;54.14;99950.56;5062696;28;20048;-79
2022/05/23 09:19:55;;;;;;;6.97;3.80;;;;;;;18.99;53.42;99956.25;5044586;28;20063;-80
2022/05/23 09:22:31;;;;;;;4.63;4.22;;;;;;;19.13;52.81;99944.91;5038744;28;20052;-84
2022/05/23 09:25:01;;;;;;;6.03;3.47;;;;;;;19.24;53.13;99938.97;5056959;28;20627;-81
2022/05/23 09:27:42;;;;;;;6.50;4.55;;;;;;;19.40;52.70;99933.66;5041852;28;20396;-80
2022/05/23 09:30:17;;;;;;;7.03;4.30;;;;;;;19.60;52.06;99924.53;5063652;28;20072;-79
2022/05/23 09:33:02;;;;;;;5.47;4.05;;;;;;;19.77;51.68;99918.25;5040110;28;20772;-82
2022/05/23 09:35:52;;;;;;;12.77;4.35;;;;;;;20.05;51.53;99916.63;5059964;28;20068;-80
2022/05/23 09:38:26;;;;;;;9.65;4.35;;;;;;;20.36;50.14;99906.78;5038928;28;20150;-80
2022/05/23 09:40:57;;;;;;;10.20;4.97;;;;;;;20.55;49.59;99894.03;5061081;28;20495;-80
2022/05/23 09:49:20;;;;;;;5.50;3.85;;;;;;;21.67;47.72;99878.91;5060390;28;20032;-82
2022/05/23 09:52:25;;;;;;;5.43;3.97;;;;;;;22.17;46.33;99869.22;5055744;28;20456;-82
2022/05/23 09:54:58;;;;;;;8.80;4.05;;;;;;;22.50;45.47;99864.31;5036587;28;20051;-82
2022/05/23 09:57:39;;;;;;;10.40;3.90;;;;;;;22.67;45.13;99860.44;5056333;28;20079;-80
2022/05/23 10:00:22;;;;;;;7.13;3.08;;;;;;;22.74;44.34;99865.22;5077856;28;20044;-83
2022/05/23 10:03:08;;;;;;;4.45;3.50;;;;;;;22.71;44.50;99861.91;5079354;28;20408;-79
2022/05/23 10:05:46;;;;;;;4.30;3.83;;;;;;;22.72;43.75;99858.28;5047158;28;20053;-79
2022/05/23 10:08:34;;;;;;;6.03;3.50;;;;;;;22.88;43.88;99850.88;5061071;28;20055;-79
2022/05/23 10:11:08;;;;;;;4.32;3.15;;;;;;;23.12;44.01;99847.34;5046577;28;20052;-79
2022/05/23 10:13:38;;;;;;;5.20;3.38;;;;;;;23.79;42.67;99843.22;5045976;28;20080;-83
2022/05/23 10:16:33;;;;;;;5.13;3.42;;;;;;;24.38;39.95;99847.56;5065501;28;20055;-80
2022/05/23 10:19:04;;;;;;;6.63;3.03;;;;;;;24.64;40.69;99851.81;5049615;28;20135;-80
2022/05/23 10:21:44;;;;;;;4.65;3.15;;;;;;;24.81;40.13;99847.75;5064918;28;20113;-80
2022/05/23 10:24:19;;;;;;;7.50;3.45;;;;;;;25.30;38.54;99851.72;5044798;28;20094;-81
2022/05/23 10:27:03;;;;;;;2.50;2.30;;;;;;;25.33;38.71;99838.09;5063886;28;20040;-79
2022/05/23 10:29:39;;;;;;;;;;;;;;;25.57;37.65;99839.69;5048488;28;20049;-81
2022/05/23 10:32:10;;;;;;;8.27;3.33;;;;;;;25.91;37.91;99829.59;5063762;28;20465;-81
2022/05/23 10:34:43;;;;;;;4.25;3.60;;;;;;;25.70;37.82;99826.94;5046523;28;20041;-83
2022/05/23 10:37:25;;;;;;;6.47;3.40;;;;;;;25.30;38.70;99827.63;5061250;28;20047;-80
2022/05/23 10:43:06;;;;;;;4.20;2.80;;;;;;;24.64;39.50;99817.00;5039425;28;20190;-80
2022/05/23 10:45:48;;;;;;;6.25;2.72;;;;;;;24.11;39.80;99811.31;5060025;28;20400;-79
2022/05/23 10:48:45;;;;;;;3.80;2.80;;;;;;;23.78;40.78;99806.81;5061515;28;20048;-80
2022/05/23 10:51:36;;;;;;;9.27;3.50;;;;;;;23.45;41.40;99790.59;5041770;28;20049;-78
2022/05/23 10:54:42;;;;;;;6.32;2.67;;;;;;;23.42;41.75;99795.31;5046362;28;20051;-80
2022/05/23 10:57:31;;;;;;;4.60;3.40;;;;;;;23.75;41.29;99793.66;5043359;28;20045;-82
2022/05/23 11:00:08;;;;;;;8.85;3.08;;;;;;;24.61;39.78;99785.97;5061778;28;20060;-82
2022/05/23 11:03:22;;;;;;;5.38;3.20;;;;;;;25.04;38.38;99803.03;5061125;28;20074;-82
2022/05/23 11:06:28;;;;;;;4.50;3.40;;;;;;;25.55;37.22;99796.09;5063031;28;20037;-82
2022/05/23 11:09:06;;;;;;;9.88;2.80;;;;;;;25.81;37.14;99795.69;5058530;28;20299;-81
2022/05/23 11:11:54;;;;;;;4.93;2.95;;;;;;;26.58;35.54;99783.53;5061005;28;20049;-81
2022/05/23 11:14:32;;;;;;;4.07;2.60;;;;;;;26.67;35.42;99779.19;5059038;28;20060;-79
2022/05/23 11:17:39;;;;;;;6.68;2.20;;;;;;;26.87;35.36;99772.00;5057330;28;20432;-80
2022/05/23 11:20:20;;;;;;;3.67;2.42;;;;;;;27.29;34.42;99773.56;5032685;28;20056;-82
2022/05/23 11:22:54;;;;;;;7.30;2.95;;;;;;;28.25;32.95;99768.03;5051123;28;20044;-79
2022/05/23 11:25:29;;;;;;;3.72;2.47;;;;;;;28.62;32.21;99761.72;5046569;28;20041;-82
2022/05/23 11:34:30;;;;;;;4.43;2.60;;;;;;;29.74;30.42;99740.59;5064555;28;20408;-80
2022/05/23 11:37:42;;;;;;;2.40;2.00;;;;;;;29.32;31.35;99733.22;5062486;28;20068;-80
2022/05/23 11:40:09;;;;;;;6.30;2.30;;;;;;;28.98;32.52;99736.66;5053754;28;20098;-81
2022/05/23 11:43:03;;;;;;;5.22;2.67;;;;;;;28.74;31.94;99735.44;5048191;28;20418;-82
2022/05/23 11:49:00;;;;;;;4.40;2.95;;;;;;;28.90;31.56;99742.81;5046939;28;20029;-79
2022/05/23 11:51:37;;;;;;;2.03;1.55;;;;;;;29.24;31.94;99744.78;5062466;28;20068;-79
2022/05/23 11:54:37;;;;;;;3.28;2.22;;;;;;;29.13;31.68;99734.25;5044066;28;20398;-83
2022/05/23 11:57:04;;;;;;;4.70;2.72;;;;;;;28.91;32.73;99722.97;5045983;28;20048;-84
2022/05/23 11:59:30;;;;;;;3.75;1.80;;;;;;;29.42;31.85;99715.09;5064137;28;20533;-82
2022/05/23 12:02:09;;;;;;;5.47;1.77;;;;;;;30.20;30.39;99695.25;5060526;28;20048;-80
2022/05/23 12:04:56;;;;;;;4.30;2.22;;;;;;;29.94;29.76;99695.34;5077594;28;20036;-81
2022/05/23 12:07:32;;;;;;;7.57;2.17;;;;;;;31.16;28.52;99678.66;5078349;28;20047;-82
2022/05/23 12:10:24;;;;;;;4.75;2.08;;;;;;;32.65;26.59;99676.09;5058804;28;20117;-80
2022/05/23 12:13:28;;;;;;;4.28;1.92;;;;;;;33.43;26.21;99674.06;5078483;28;20735;-81
2022/05/23 12:15:56;;;;;;;3.58;1.70;;;;;;;35.24;24.32;99673.28;5047034;28;20191;-83
2022/05/23 12:18:23;;;;;;;2.33;1.60;;;;;;;36.20;22.90;99676.25;5046632;28;20049;-83
2022/05/23 12:20:57;;;;;;;3.67;1.50;;;;;;;36.96;22.53;99666.97;5063281;28;20044;-80
2022/05/23 12:23:37;;;;;;;2.15;1.90;;;;;;;36.67;22.01;99668.19;5075184;28;20037;-81
2022/05/23 12:26:22;;;;;;;3.33;2.15;;;;;;;35.22;23.25;99678.06;5061194;28;20067;-84
2022/05/23 12:29:01;;;;;;;4.93;2.28;;;;;;;34.18;24.62;99665.81;5046037;28;20040;-83
2022/05/23 12:31:37;;;;;;;5.43;2.08;;;;;;;34.01;25.25;99677.94;5031925;28;20145;-82
2022/05/23 12:34:09;;;;;;;5.75;2.08;;;;;;;34.44;24.93;99659.00;5062215;28;20063;-82
2022/05/23 12:36:50;;;;;;;4.25;2.15;;;;;;;34.58;24.40;99658.09;5060825;28;20048;-81
2022/05/23 12:39:52;;;;;;;3.38;2.65;;;;;;;33.62;25.32;99641.94;5046876;28;20063;-82
2022/05/23 12:42:52;;;;;;;3.72;1.85;;;;;;;34.26;24.70;99641.25;5061333;28;20384;-83
2022/05/23 12:45:33;;;;;;;4.32;1.60;;;;;;;34.98;24.29;99644.03;5042114;28;20074;-81
2022/05/23 12:48:31;;;;;;;2.25;1.85;;;;;;;35.45;23.57;99622.56;5063292;28;20055;-81
2022/05/23 12:51:20;;;;;;;1.58;1.48;;;;;;;35.87;22.91;99606.22;5064048;28;20048;-81
2022/05/23 12:54:28;;;;;;;3.63;2.15;;;;;;;35.07;23.46;99620.22;5043783;28;20044;-82
2022/05/23 12:57:26;;;;;;;3.05;1.70;;;;;;;35.08;23.73;99605.56;5048005;28;20048;-82
2022/05/23 13:00:08;;;;;;;5.55;2.00;;;;;;;35.33;23.35;99610.53;5055761;28;20174;-81
2022/05/23 13:02:51;;;;;;;3.05;1.48;;;;;;;34.27;24.47;99601.34;5043556;28;20040;-81
2022/05/23 13:05:41;;;;;;;2.72;1.80;;;;;;;34.76;24.56;99592.38;5057068;28;20163;-82
2022/05/23 13:08:29;;;;;;;2.95;1.42;;;;;;;35.89;22.78;99595.94;5026325;28;20048;-80
2022/05/23 13:11:03;;;;;;;2.65;1.30;;;;;;;36.20;22.76;99594.53;5042986;28;21269;-81